sensor_id;sensor_type;location;lat;lon;timestamp;P1;durP1;ratioP1;P2;durP2;ratioP2
40537;SDS011;27925;41.874;12.526;2022-09-01T00:01:24;7.50;;;2.38;;
40537;SDS011;27925;41.874;12.526;2022-09-01T00:03:51;5.60;;;2.13;;
40537;SDS011;27925;41.874;12.526;2022-09-01T00:06:19;6.55;;;2.30;;
40537;SDS011;27925;41.874;12.526;2022-09-01T00:08:50;7.50;;;2.47;;
40537;SDS011;27925;41.874;12.526;2022-09-01T00:11:16;5.55;;;1.92;;
40537;SDS011;27925;41.874;12.526;2022-09-01T00:13:42;3.90;;;2.03;;
40537;SDS011;27925;41.874;12.526;2022-09-01T00:16:08;5.70;;;2.17;;
40537;SDS011;27925;41.874;12.526;2022-09-01T00:18:38;9.43;;;2.35;;
40537;SDS011;27925;41.874;12.526;2022-09-01T00:21:06;6.38;;;2.30;;
40537;SDS011;27925;41.874;12.526;2022-09-01T00:23:33;9.48;;;3.20;;
40537;SDS011;27925;41.874;12.526;2022-09-01T00:25:59;9.45;;;3.47;;
40537;SDS011;27925;41.874;12.526;2022-09-01T00:28:25;9.40;;;3.50;;
40537;SDS011;27925;41.874;12.526;2022-09-01T00:30:50;8.02;;;2.90;;
40537;SDS011;27925;41.874;12.526;2022-09-01T00:33:17;8.73;;;2.95;;
40537;SDS011;27925;41.874;12.526;2022-09-01T00:35:44;8.98;;;2.55;;
40537;SDS011;27925;41.874;12.526;2022-09-01T00:38:10;7.50;;;2.47;;
40537;SDS011;27925;41.874;12.526;2022-09-01T00:40:36;7.65;;;2.15;;
40537;SDS011;27925;41.874;12.526;2022-09-01T00:43:16;9.90;;;2.33;;
40537;SDS011;27925;41.874;12.526;2022-09-01T00:45:45;5.88;;;2.25;;
40537;SDS011;27925;41.874;12.526;2022-09-01T00:48:11;6.05;;;2.35;;
40537;SDS011;27925;41.874;12.526;2022-09-01T00:50:39;7.22;;;2.60;;
40537;SDS011;27925;41.874;12.526;2022-09-01T00:53:05;8.75;;;2.60;;
40537;SDS011;27925;41.874;12.526;2022-09-01T00:55:32;8.70;;;2.65;;
40537;SDS011;27925;41.874;12.526;2022-09-01T00:58:00;7.35;;;2.38;;
40537;SDS011;27925;41.874;12.526;2022-09-01T01:00:29;10.10;;;2.85;;
40537;SDS011;27925;41.874;12.526;2022-09-01T01:02:57;8.80;;;2.60;;
40537;SDS011;27925;41.874;12.526;2022-09-01T01:05:25;5.95;;;2.30;;
40537;SDS011;27925;41.874;12.526;2022-09-01T01:07:57;5.70;;;2.28;;
40537;SDS011;27925;41.874;12.526;2022-09-01T01:10:25;7.55;;;2.72;;
40537;SDS011;27925;41.874;12.526;2022-09-01T01:12:56;8.00;;;2.60;;
40537;SDS011;27925;41.874;12.526;2022-09-01T01:15:26;11.68;;;2.85;;
40537;SDS011;27925;41.874;12.526;2022-09-01T01:17:52;8.23;;;2.33;;
40537;SDS011;27925;41.874;12.526;2022-09-01T01:20:18;7.82;;;2.65;;
40537;SDS011;27925;41.874;12.526;2022-09-01T01:23:26;11.68;;;2.67;;
40537;SDS011;27925;41.874;12.526;2022-09-01T01:26:01;8.73;;;2.67;;
40537;SDS011;27925;41.874;12.526;2022-09-01T01:28:30;6.22;;;2.10;;
40537;SDS011;27925;41.874;12.526;2022-09-01T01:31:08;7.82;;;2.40;;
40537;SDS011;27925;41.874;12.526;2022-09-01T01:33:46;10.73;;;2.95;;
40537;SDS011;27925;41.874;12.526;2022-09-01T01:38:51;9.68;;;2.90;;
40537;SDS011;27925;41.874;12.526;2022-09-01T01:41:17;7.38;;;2.80;;
40537;SDS011;27925;41.874;12.526;2022-09-01T01:43:43;6.20;;;2.20;;
40537;SDS011;27925;41.874;12.526;2022-09-01T01:46:10;9.52;;;2.95;;
40537;SDS011;27925;41.874;12.526;2022-09-01T01:48:39;13.05;;;2.90;;
40537;SDS011;27925;41.874;12.526;2022-09-01T01:51:07;8.95;;;2.60;;
40537;SDS011;27925;41.874;12.526;2022-09-01T01:53:34;8.25;;;2.45;;
40537;SDS011;27925;41.874;12.526;2022-09-01T01:56:01;8.43;;;2.67;;
40537;SDS011;27925;41.874;12.526;2022-09-01T01:58:27;8.60;;;2.65;;
40537;SDS011;27925;41.874;12.526;2022-09-01T02:00:55;10.23;;;3.08;;
40537;SDS011;27925;41.874;12.526;2022-09-01T02:03:24;6.32;;;2.40;;
40537;SDS011;27925;41.874;12.526;2022-09-01T02:05:53;4.40;;;2.08;;
40537;SDS011;27925;41.874;12.526;2022-09-01T02:08:20;12.00;;;2.83;;
40537;SDS011;27925;41.874;12.526;2022-09-01T02:10:50;10.38;;;2.95;;
40537;SDS011;27925;41.874;12.526;2022-09-01T02:13:18;7.20;;;2.60;;
40537;SDS011;27925;41.874;12.526;2022-09-01T02:15:48;8.07;;;2.40;;
40537;SDS011;27925;41.874;12.526;2022-09-01T02:18:28;7.47;;;2.40;;
40537;SDS011;27925;41.874;12.526;2022-09-01T02:21:03;6.32;;;2.33;;
40537;SDS011;27925;41.874;12.526;2022-09-01T02:23:33;5.35;;;2.17;;
40537;SDS011;27925;41.874;12.526;2022-09-01T02:26:00;7.80;;;2.45;;
40537;SDS011;27925;41.874;12.526;2022-09-01T02:28:27;8.80;;;2.75;;
40537;SDS011;27925;41.874;12.526;2022-09-01T02:30:56;5.70;;;2.13;;
40537;SDS011;27925;41.874;12.526;2022-09-01T02:33:23;4.30;;;2.00;;
40537;SDS011;27925;41.874;12.526;2022-09-01T02:35:51;5.65;;;2.17;;
40537;SDS011;27925;41.874;12.526;2022-09-01T02:38:23;6.43;;;2.10;;
40537;SDS011;27925;41.874;12.526;2022-09-01T02:40:54;9.30;;;2.10;;
40537;SDS011;27925;41.874;12.526;2022-09-01T02:43:21;6.47;;;2.10;;
40537;SDS011;27925;41.874;12.526;2022-09-01T02:45:47;6.30;;;2.22;;
40537;SDS011;27925;41.874;12.526;2022-09-01T02:48:23;4.60;;;2.05;;
40537;SDS011;27925;41.874;12.526;2022-09-01T02:51:00;4.13;;;2.10;;
40537;SDS011;27925;41.874;12.526;2022-09-01T02:53:30;7.32;;;2.50;;
40537;SDS011;27925;41.874;12.526;2022-09-01T02:56:00;10.35;;;2.35;;
40537;SDS011;27925;41.874;12.526;2022-09-01T02:58:27;7.05;;;2.45;;
40537;SDS011;27925;41.874;12.526;2022-09-01T03:01:05;7.63;;;2.70;;
40537;SDS011;27925;41.874;12.526;2022-09-01T03:03:50;9.15;;;2.50;;
40537;SDS011;27925;41.874;12.526;2022-09-01T03:06:18;6.88;;;2.53;;
40537;SDS011;27925;41.874;12.526;2022-09-01T03:08:48;7.70;;;2.55;;
40537;SDS011;27925;41.874;12.526;2022-09-01T03:11:15;6.00;;;2.40;;
40537;SDS011;27925;41.874;12.526;2022-09-01T03:13:41;10.75;;;2.72;;
40537;SDS011;27925;41.874;12.526;2022-09-01T03:16:07;6.90;;;2.38;;
40537;SDS011;27925;41.874;12.526;2022-09-01T03:18:35;6.47;;;2.45;;
40537;SDS011;27925;41.874;12.526;2022-09-01T03:21:01;5.75;;;2.15;;
40537;SDS011;27925;41.874;12.526;2022-09-01T03:23:29;7.90;;;3.60;;
40537;SDS011;27925;41.874;12.526;2022-09-01T03:25:57;9.00;;;2.63;;
40537;SDS011;27925;41.874;12.526;2022-09-01T03:28:23;5.93;;;2.40;;
40537;SDS011;27925;41.874;12.526;2022-09-01T03:30:50;7.28;;;3.00;;
40537;SDS011;27925;41.874;12.526;2022-09-01T03:33:17;5.50;;;2.85;;
40537;SDS011;27925;41.874;12.526;2022-09-01T03:35:45;5.90;;;2.63;;
40537;SDS011;27925;41.874;12.526;2022-09-01T03:38:12;12.05;;;2.63;;
40537;SDS011;27925;41.874;12.526;2022-09-01T03:40:45;8.50;;;2.78;;
40537;SDS011;27925;41.874;12.526;2022-09-01T03:43:12;12.00;;;3.00;;
40537;SDS011;27925;41.874;12.526;2022-09-01T03:45:39;7.25;;;3.10;;
40537;SDS011;27925;41.874;12.526;2022-09-01T03:48:06;7.93;;;2.67;;
40537;SDS011;27925;41.874;12.526;2022-09-01T03:50:37;6.38;;;2.47;;
40537;SDS011;27925;41.874;12.526;2022-09-01T03:53:09;10.10;;;2.78;;
40537;SDS011;27925;41.874;12.526;2022-09-01T03:55:37;7.35;;;2.40;;
40537;SDS011;27925;41.874;12.526;2022-09-01T03:58:04;7.13;;;2.50;;
40537;SDS011;27925;41.874;12.526;2022-09-01T04:00:39;9.25;;;2.50;;
40537;SDS011;27925;41.874;12.526;2022-09-01T04:03:11;5.88;;;2.40;;
40537;SDS011;27925;41.874;12.526;2022-09-01T04:05:38;9.43;;;3.13;;
40537;SDS011;27925;41.874;12.526;2022-09-01T04:08:08;9.57;;;3.35;;
40537;SDS011;27925;41.874;12.526;2022-09-01T04:10:36;6.45;;;3.05;;
40537;SDS011;27925;41.874;12.526;2022-09-01T04:13:17;6.95;;;2.58;;
40537;SDS011;27925;41.874;12.526;2022-09-01T04:15:46;9.10;;;2.60;;
40537;SDS011;27925;41.874;12.526;2022-09-01T04:18:12;5.05;;;2.00;;
40537;SDS011;27925;41.874;12.526;2022-09-01T04:20:49;5.82;;;2.55;;
40537;SDS011;27925;41.874;12.526;2022-09-01T04:23:17;5.70;;;1.90;;
40537;SDS011;27925;41.874;12.526;2022-09-01T04:25:54;5.15;;;2.45;;
40537;SDS011;27925;41.874;12.526;2022-09-01T04:28:24;6.57;;;2.17;;
40537;SDS011;27925;41.874;12.526;2022-09-01T04:30:58;7.00;;;2.55;;
40537;SDS011;27925;41.874;12.526;2022-09-01T04:33:29;6.65;;;2.50;;
40537;SDS011;27925;41.874;12.526;2022-09-01T04:36:06;7.22;;;2.45;;
40537;SDS011;27925;41.874;12.526;2022-09-01T04:38:47;13.10;;;3.00;;
40537;SDS011;27925;41.874;12.526;2022-09-01T04:41:14;8.93;;;2.90;;
40537;SDS011;27925;41.874;12.526;2022-09-01T04:43:45;5.60;;;2.42;;
40537;SDS011;27925;41.874;12.526;2022-09-01T04:46:15;6.95;;;2.40;;
40537;SDS011;27925;41.874;12.526;2022-09-01T04:48:41;8.00;;;2.50;;
40537;SDS011;27925;41.874;12.526;2022-09-01T04:51:09;7.47;;;3.00;;
40537;SDS011;27925;41.874;12.526;2022-09-01T04:53:40;9.20;;;2.58;;
40537;SDS011;27925;41.874;12.526;2022-09-01T04:56:08;5.47;;;2.30;;
40537;SDS011;27925;41.874;12.526;2022-09-01T04:58:34;6.03;;;2.55;;
40537;SDS011;27925;41.874;12.526;2022-09-01T05:01:01;8.45;;;2.85;;
40537;SDS011;27925;41.874;12.526;2022-09-01T05:03:37;7.57;;;2.58;;
40537;SDS011;27925;41.874;12.526;2022-09-01T05:06:03;5.30;;;2.10;;
40537;SDS011;27925;41.874;12.526;2022-09-01T05:08:29;6.18;;;2.10;;
40537;SDS011;27925;41.874;12.526;2022-09-01T05:10:59;4.88;;;2.28;;
40537;SDS011;27925;41.874;12.526;2022-09-01T05:13:31;10.18;;;2.72;;
40537;SDS011;27925;41.874;12.526;2022-09-01T05:16:04;8.40;;;2.58;;
40537;SDS011;27925;41.874;12.526;2022-09-01T05:18:37;7.80;;;2.55;;
40537;SDS011;27925;41.874;12.526;2022-09-01T05:21:05;9.45;;;2.60;;
40537;SDS011;27925;41.874;12.526;2022-09-01T05:23:38;7.97;;;2.50;;
40537;SDS011;27925;41.874;12.526;2022-09-01T05:26:04;7.82;;;2.90;;
40537;SDS011;27925;41.874;12.526;2022-09-01T05:28:39;6.30;;;2.58;;
40537;SDS011;27925;41.874;12.526;2022-09-01T05:31:05;4.97;;;2.17;;
40537;SDS011;27925;41.874;12.526;2022-09-01T05:33:31;5.38;;;2.25;;
40537;SDS011;27925;41.874;12.526;2022-09-01T05:35:58;5.53;;;2.55;;
40537;SDS011;27925;41.874;12.526;2022-09-01T05:38:25;7.03;;;3.00;;
40537;SDS011;27925;41.874;12.526;2022-09-01T05:40:55;5.20;;;2.40;;
40537;SDS011;27925;41.874;12.526;2022-09-01T05:43:22;6.00;;;2.72;;
40537;SDS011;27925;41.874;12.526;2022-09-01T05:45:49;6.10;;;2.25;;
40537;SDS011;27925;41.874;12.526;2022-09-01T05:48:14;6.88;;;3.00;;
40537;SDS011;27925;41.874;12.526;2022-09-01T05:50:41;7.57;;;2.67;;
40537;SDS011;27925;41.874;12.526;2022-09-01T05:53:11;6.15;;;2.33;;
40537;SDS011;27925;41.874;12.526;2022-09-01T05:55:44;6.05;;;2.25;;
40537;SDS011;27925;41.874;12.526;2022-09-01T05:58:14;5.32;;;2.30;;
40537;SDS011;27925;41.874;12.526;2022-09-01T06:00:41;13.77;;;3.00;;
40537;SDS011;27925;41.874;12.526;2022-09-01T06:03:11;4.60;;;2.10;;
40537;SDS011;27925;41.874;12.526;2022-09-01T06:05:38;6.05;;;2.10;;
40537;SDS011;27925;41.874;12.526;2022-09-01T06:08:05;7.55;;;2.55;;
40537;SDS011;27925;41.874;12.526;2022-09-01T06:10:35;6.32;;;2.50;;
40537;SDS011;27925;41.874;12.526;2022-09-01T06:13:04;5.32;;;2.22;;
40537;SDS011;27925;41.874;12.526;2022-09-01T06:15:30;6.22;;;2.70;;
40537;SDS011;27925;41.874;12.526;2022-09-01T06:17:57;4.95;;;2.35;;
40537;SDS011;27925;41.874;12.526;2022-09-01T06:20:24;5.00;;;2.20;;
40537;SDS011;27925;41.874;12.526;2022-09-01T06:22:51;6.68;;;2.08;;
40537;SDS011;27925;41.874;12.526;2022-09-01T06:25:20;6.18;;;2.20;;
40537;SDS011;27925;41.874;12.526;2022-09-01T06:27:46;6.47;;;2.08;;
40537;SDS011;27925;41.874;12.526;2022-09-01T06:30:13;4.65;;;2.10;;
40537;SDS011;27925;41.874;12.526;2022-09-01T06:32:42;5.97;;;2.10;;
40537;SDS011;27925;41.874;12.526;2022-09-01T06:35:12;7.32;;;2.28;;
40537;SDS011;27925;41.874;12.526;2022-09-01T06:37:40;6.68;;;2.40;;
40537;SDS011;27925;41.874;12.526;2022-09-01T06:40:08;6.25;;;2.47;;
40537;SDS011;27925;41.874;12.526;2022-09-01T06:42:43;7.45;;;2.70;;
40537;SDS011;27925;41.874;12.526;2022-09-01T06:45:11;6.88;;;2.50;;
40537;SDS011;27925;41.874;12.526;2022-09-01T06:47:39;8.45;;;2.42;;
40537;SDS011;27925;41.874;12.526;2022-09-01T06:50:09;7.00;;;2.90;;
40537;SDS011;27925;41.874;12.526;2022-09-01T06:52:39;9.15;;;3.00;;
40537;SDS011;27925;41.874;12.526;2022-09-01T06:55:12;8.40;;;3.10;;
40537;SDS011;27925;41.874;12.526;2022-09-01T06:57:39;12.93;;;2.80;;
40537;SDS011;27925;41.874;12.526;2022-09-01T07:00:16;6.90;;;2.50;;
40537;SDS011;27925;41.874;12.526;2022-09-01T07:02:51;10.02;;;2.50;;
40537;SDS011;27925;41.874;12.526;2022-09-01T07:05:19;7.72;;;2.70;;
40537;SDS011;27925;41.874;12.526;2022-09-01T07:07:48;6.50;;;2.70;;
40537;SDS011;27925;41.874;12.526;2022-09-01T07:10:16;8.30;;;2.78;;
40537;SDS011;27925;41.874;12.526;2022-09-01T07:12:45;9.68;;;3.08;;
40537;SDS011;27925;41.874;12.526;2022-09-01T07:15:11;6.82;;;2.70;;
40537;SDS011;27925;41.874;12.526;2022-09-01T07:17:48;10.82;;;3.60;;
40537;SDS011;27925;41.874;12.526;2022-09-01T07:20:17;11.90;;;3.55;;
40537;SDS011;27925;41.874;12.526;2022-09-01T07:22:48;10.07;;;3.45;;
40537;SDS011;27925;41.874;12.526;2022-09-01T07:25:14;8.82;;;2.95;;
40537;SDS011;27925;41.874;12.526;2022-09-01T07:27:41;12.15;;;3.67;;
40537;SDS011;27925;41.874;12.526;2022-09-01T07:32:41;20.08;;;4.40;;
40537;SDS011;27925;41.874;12.526;2022-09-01T07:35:11;9.93;;;3.95;;
40537;SDS011;27925;41.874;12.526;2022-09-01T07:37:37;14.02;;;3.50;;
40537;SDS011;27925;41.874;12.526;2022-09-01T07:40:08;11.13;;;4.20;;
40537;SDS011;27925;41.874;12.526;2022-09-01T07:42:38;11.68;;;3.88;;
40537;SDS011;27925;41.874;12.526;2022-09-01T07:45:09;9.43;;;3.80;;
40537;SDS011;27925;41.874;12.526;2022-09-01T07:47:35;12.90;;;4.20;;
40537;SDS011;27925;41.874;12.526;2022-09-01T07:50:04;10.35;;;3.60;;
40537;SDS011;27925;41.874;12.526;2022-09-01T07:52:33;9.82;;;4.13;;
40537;SDS011;27925;41.874;12.526;2022-09-01T07:55:00;11.18;;;3.42;;
40537;SDS011;27925;41.874;12.526;2022-09-01T07:57:26;14.00;;;4.00;;
40537;SDS011;27925;41.874;12.526;2022-09-01T07:59:51;6.80;;;2.92;;
40537;SDS011;27925;41.874;12.526;2022-09-01T08:02:20;10.57;;;4.10;;
40537;SDS011;27925;41.874;12.526;2022-09-01T08:04:46;7.20;;;3.20;;
40537;SDS011;27925;41.874;12.526;2022-09-01T08:07:13;6.57;;;3.13;;
40537;SDS011;27925;41.874;12.526;2022-09-01T08:09:39;6.85;;;3.10;;
40537;SDS011;27925;41.874;12.526;2022-09-01T08:12:04;9.63;;;3.38;;
40537;SDS011;27925;41.874;12.526;2022-09-01T08:14:32;9.70;;;3.75;;
40537;SDS011;27925;41.874;12.526;2022-09-01T08:16:58;10.90;;;4.55;;
40537;SDS011;27925;41.874;12.526;2022-09-01T08:19:23;9.55;;;3.70;;
40537;SDS011;27925;41.874;12.526;2022-09-01T08:21:49;15.52;;;4.35;;
40537;SDS011;27925;41.874;12.526;2022-09-01T08:24:15;8.88;;;3.78;;
40537;SDS011;27925;41.874;12.526;2022-09-01T08:26:41;12.85;;;4.25;;
40537;SDS011;27925;41.874;12.526;2022-09-01T08:29:06;9.60;;;3.55;;
40537;SDS011;27925;41.874;12.526;2022-09-01T08:31:33;7.82;;;3.33;;
40537;SDS011;27925;41.874;12.526;2022-09-01T08:34:00;8.40;;;3.30;;
40537;SDS011;27925;41.874;12.526;2022-09-01T08:36:29;9.25;;;3.47;;
40537;SDS011;27925;41.874;12.526;2022-09-01T08:38:55;10.18;;;4.13;;
40537;SDS011;27925;41.874;12.526;2022-09-01T08:41:31;8.02;;;3.30;;
40537;SDS011;27925;41.874;12.526;2022-09-01T08:46:58;9.98;;;4.20;;
40537;SDS011;27925;41.874;12.526;2022-09-01T08:49:28;8.32;;;3.42;;
40537;SDS011;27925;41.874;12.526;2022-09-01T08:57:19;7.20;;;3.30;;
40537;SDS011;27925;41.874;12.526;2022-09-01T08:59:52;8.55;;;3.65;;
40537;SDS011;27925;41.874;12.526;2022-09-01T09:10:08;9.82;;;3.65;;
40537;SDS011;27925;41.874;12.526;2022-09-01T09:12:57;10.75;;;3.45;;
40537;SDS011;27925;41.874;12.526;2022-09-01T09:15:57;7.38;;;3.42;;
40537;SDS011;27925;41.874;12.526;2022-09-01T09:21:32;8.70;;;3.10;;
40537;SDS011;27925;41.874;12.526;2022-09-01T09:24:07;11.27;;;4.18;;
40537;SDS011;27925;41.874;12.526;2022-09-01T09:26:40;8.57;;;3.80;;
40537;SDS011;27925;41.874;12.526;2022-09-01T09:29:05;9.45;;;3.80;;
40537;SDS011;27925;41.874;12.526;2022-09-01T09:31:33;9.07;;;3.40;;
40537;SDS011;27925;41.874;12.526;2022-09-01T09:34:30;7.75;;;3.30;;
40537;SDS011;27925;41.874;12.526;2022-09-01T09:36:59;12.60;;;3.53;;
40537;SDS011;27925;41.874;12.526;2022-09-01T09:39:40;9.13;;;3.78;;
40537;SDS011;27925;41.874;12.526;2022-09-01T09:42:09;12.13;;;3.70;;
40537;SDS011;27925;41.874;12.526;2022-09-01T09:44:44;16.00;;;3.83;;
40537;SDS011;27925;41.874;12.526;2022-09-01T09:47:34;11.55;;;3.63;;
40537;SDS011;27925;41.874;12.526;2022-09-01T09:50:16;6.40;;;2.72;;
40537;SDS011;27925;41.874;12.526;2022-09-01T09:52:45;7.32;;;2.75;;
40537;SDS011;27925;41.874;12.526;2022-09-01T09:57:50;99.63;;;9.55;;
40537;SDS011;27925;41.874;12.526;2022-09-01T10:00:21;23.50;;;5.65;;
40537;SDS011;27925;41.874;12.526;2022-09-01T10:02:54;9.93;;;2.80;;
40537;SDS011;27925;41.874;12.526;2022-09-01T10:05:42;6.45;;;2.42;;
40537;SDS011;27925;41.874;12.526;2022-09-01T10:11:01;17.25;;;3.35;;
40537;SDS011;27925;41.874;12.526;2022-09-01T10:13:29;10.30;;;2.97;;
40537;SDS011;27925;41.874;12.526;2022-09-01T10:16:06;9.93;;;3.10;;
40537;SDS011;27925;41.874;12.526;2022-09-01T10:18:40;4.13;;;2.10;;
40537;SDS011;27925;41.874;12.526;2022-09-01T10:21:11;10.80;;;2.22;;
40537;SDS011;27925;41.874;12.526;2022-09-01T10:23:46;7.50;;;2.50;;
40537;SDS011;27925;41.874;12.526;2022-09-01T10:26:21;10.35;;;2.83;;
40537;SDS011;27925;41.874;12.526;2022-09-01T10:28:56;5.38;;;2.40;;
40537;SDS011;27925;41.874;12.526;2022-09-01T10:31:59;8.02;;;2.97;;
40537;SDS011;27925;41.874;12.526;2022-09-01T10:34:27;5.60;;;2.70;;
40537;SDS011;27925;41.874;12.526;2022-09-01T10:36:59;11.02;;;3.42;;
40537;SDS011;27925;41.874;12.526;2022-09-01T10:39:25;8.52;;;2.90;;
40537;SDS011;27925;41.874;12.526;2022-09-01T10:41:51;10.77;;;2.80;;
40537;SDS011;27925;41.874;12.526;2022-09-01T10:44:22;4.38;;;2.20;;
40537;SDS011;27925;41.874;12.526;2022-09-01T10:46:48;12.98;;;3.45;;
40537;SDS011;27925;41.874;12.526;2022-09-01T10:51:44;7.32;;;2.80;;
40537;SDS011;27925;41.874;12.526;2022-09-01T10:57:11;9.88;;;3.20;;
40537;SDS011;27925;41.874;12.526;2022-09-01T10:59:52;10.30;;;2.50;;
40537;SDS011;27925;41.874;12.526;2022-09-01T11:02:21;8.02;;;2.50;;
40537;SDS011;27925;41.874;12.526;2022-09-01T11:18:48;9.90;;;2.92;;
40537;SDS011;27925;41.874;12.526;2022-09-01T11:21:16;10.50;;;3.35;;
40537;SDS011;27925;41.874;12.526;2022-09-01T11:23:50;12.65;;;2.55;;
40537;SDS011;27925;41.874;12.526;2022-09-01T11:28:56;9.20;;;2.47;;
40537;SDS011;27925;41.874;12.526;2022-09-01T11:31:37;9.52;;;2.65;;
40537;SDS011;27925;41.874;12.526;2022-09-01T11:47:09;4.10;;;1.80;;
40537;SDS011;27925;41.874;12.526;2022-09-01T11:52:18;5.70;;;1.73;;
40537;SDS011;27925;41.874;12.526;2022-09-01T11:54:46;7.15;;;1.98;;
40537;SDS011;27925;41.874;12.526;2022-09-01T11:57:26;6.22;;;2.65;;
40537;SDS011;27925;41.874;12.526;2022-09-01T11:59:58;6.07;;;2.20;;
40537;SDS011;27925;41.874;12.526;2022-09-01T12:02:26;6.85;;;2.00;;
40537;SDS011;27925;41.874;12.526;2022-09-01T12:04:56;8.38;;;1.67;;
40537;SDS011;27925;41.874;12.526;2022-09-01T12:07:41;4.72;;;1.90;;
40537;SDS011;27925;41.874;12.526;2022-09-01T12:10:28;7.35;;;2.42;;
40537;SDS011;27925;41.874;12.526;2022-09-01T12:13:01;11.43;;;2.00;;
40537;SDS011;27925;41.874;12.526;2022-09-01T12:15:57;15.82;;;2.15;;
40537;SDS011;27925;41.874;12.526;2022-09-01T12:18:43;8.20;;;1.60;;
40537;SDS011;27925;41.874;12.526;2022-09-01T12:21:19;6.95;;;1.52;;
40537;SDS011;27925;41.874;12.526;2022-09-01T12:24:09;7.90;;;1.95;;
40537;SDS011;27925;41.874;12.526;2022-09-01T12:26:47;6.15;;;2.33;;
40537;SDS011;27925;41.874;12.526;2022-09-01T12:29:15;3.80;;;1.27;;
40537;SDS011;27925;41.874;12.526;2022-09-01T12:31:43;3.15;;;1.40;;
40537;SDS011;27925;41.874;12.526;2022-09-01T12:37:25;4.15;;;1.08;;
40537;SDS011;27925;41.874;12.526;2022-09-01T12:39:52;5.25;;;1.50;;
40537;SDS011;27925;41.874;12.526;2022-09-01T12:42:28;5.70;;;1.77;;
40537;SDS011;27925;41.874;12.526;2022-09-01T12:49:58;6.22;;;1.73;;
40537;SDS011;27925;41.874;12.526;2022-09-01T12:52:25;5.25;;;1.67;;
40537;SDS011;27925;41.874;12.526;2022-09-01T12:57:35;5.88;;;1.70;;
40537;SDS011;27925;41.874;12.526;2022-09-01T13:02:40;3.38;;;1.45;;
40537;SDS011;27925;41.874;12.526;2022-09-01T13:08:08;3.85;;;1.30;;
40537;SDS011;27925;41.874;12.526;2022-09-01T13:10:39;4.97;;;1.50;;
40537;SDS011;27925;41.874;12.526;2022-09-01T13:13:13;3.10;;;1.40;;
40537;SDS011;27925;41.874;12.526;2022-09-01T13:15:41;5.25;;;1.90;;
40537;SDS011;27925;41.874;12.526;2022-09-01T13:18:12;4.70;;;2.07;;
40537;SDS011;27925;41.874;12.526;2022-09-01T13:20:39;4.25;;;1.30;;
40537;SDS011;27925;41.874;12.526;2022-09-01T13:23:06;3.83;;;1.10;;
40537;SDS011;27925;41.874;12.526;2022-09-01T13:25:32;2.42;;;1.38;;
40537;SDS011;27925;41.874;12.526;2022-09-01T13:27:58;4.32;;;1.20;;
40537;SDS011;27925;41.874;12.526;2022-09-01T13:30:27;3.80;;;1.42;;
40537;SDS011;27925;41.874;12.526;2022-09-01T13:32:54;6.05;;;1.58;;
40537;SDS011;27925;41.874;12.526;2022-09-01T13:35:21;5.55;;;1.52;;
40537;SDS011;27925;41.874;12.526;2022-09-01T13:37:48;5.00;;;1.20;;
40537;SDS011;27925;41.874;12.526;2022-09-01T13:40:14;3.35;;;1.50;;
40537;SDS011;27925;41.874;12.526;2022-09-01T13:42:46;4.43;;;1.20;;
40537;SDS011;27925;41.874;12.526;2022-09-01T13:45:18;5.32;;;1.20;;
40537;SDS011;27925;41.874;12.526;2022-09-01T13:47:48;6.15;;;1.40;;
40537;SDS011;27925;41.874;12.526;2022-09-01T13:50:15;4.72;;;1.85;;
40537;SDS011;27925;41.874;12.526;2022-09-01T13:52:44;3.05;;;1.15;;
40537;SDS011;27925;41.874;12.526;2022-09-01T13:55:13;5.57;;;1.35;;
40537;SDS011;27925;41.874;12.526;2022-09-01T13:57:44;3.90;;;1.45;;
40537;SDS011;27925;41.874;12.526;2022-09-01T14:00:11;4.95;;;1.85;;
40537;SDS011;27925;41.874;12.526;2022-09-01T14:02:45;6.90;;;1.88;;
40537;SDS011;27925;41.874;12.526;2022-09-01T14:05:13;7.72;;;1.90;;
40537;SDS011;27925;41.874;12.526;2022-09-01T14:07:44;6.50;;;1.92;;
40537;SDS011;27925;41.874;12.526;2022-09-01T14:10:10;4.15;;;1.70;;
40537;SDS011;27925;41.874;12.526;2022-09-01T14:12:38;4.32;;;1.70;;
40537;SDS011;27925;41.874;12.526;2022-09-01T14:15:06;5.13;;;1.70;;
40537;SDS011;27925;41.874;12.526;2022-09-01T14:17:33;5.85;;;1.60;;
40537;SDS011;27925;41.874;12.526;2022-09-01T14:20:01;6.45;;;1.60;;
40537;SDS011;27925;41.874;12.526;2022-09-01T14:22:28;3.67;;;1.60;;
40537;SDS011;27925;41.874;12.526;2022-09-01T14:24:55;4.57;;;1.88;;
40537;SDS011;27925;41.874;12.526;2022-09-01T14:27:21;7.45;;;1.70;;
40537;SDS011;27925;41.874;12.526;2022-09-01T14:29:50;4.75;;;1.77;;
40537;SDS011;27925;41.874;12.526;2022-09-01T14:32:17;6.38;;;1.92;;
40537;SDS011;27925;41.874;12.526;2022-09-01T14:34:46;5.55;;;1.90;;
40537;SDS011;27925;41.874;12.526;2022-09-01T14:37:12;4.82;;;1.65;;
40537;SDS011;27925;41.874;12.526;2022-09-01T14:39:38;8.85;;;1.85;;
40537;SDS011;27925;41.874;12.526;2022-09-01T14:42:04;6.60;;;2.03;;
40537;SDS011;27925;41.874;12.526;2022-09-01T14:44:34;3.47;;;1.70;;
40537;SDS011;27925;41.874;12.526;2022-09-01T14:47:01;5.70;;;1.85;;
40537;SDS011;27925;41.874;12.526;2022-09-01T14:49:30;5.30;;;1.95;;
40537;SDS011;27925;41.874;12.526;2022-09-01T14:52:01;5.57;;;2.38;;
40537;SDS011;27925;41.874;12.526;2022-09-01T14:54:35;4.95;;;2.17;;
40537;SDS011;27925;41.874;12.526;2022-09-01T14:57:03;6.70;;;2.00;;
40537;SDS011;27925;41.874;12.526;2022-09-01T14:59:30;6.90;;;2.10;;
40537;SDS011;27925;41.874;12.526;2022-09-01T15:01:56;3.75;;;1.60;;
40537;SDS011;27925;41.874;12.526;2022-09-01T15:04:22;4.78;;;1.88;;
40537;SDS011;27925;41.874;12.526;2022-09-01T15:06:48;6.15;;;2.00;;
40537;SDS011;27925;41.874;12.526;2022-09-01T15:09:13;4.25;;;1.80;;
40537;SDS011;27925;41.874;12.526;2022-09-01T15:11:40;4.70;;;1.75;;
40537;SDS011;27925;41.874;12.526;2022-09-01T15:14:06;6.45;;;1.80;;
40537;SDS011;27925;41.874;12.526;2022-09-01T15:16:33;5.80;;;2.00;;
40537;SDS011;27925;41.874;12.526;2022-09-01T15:19:04;8.50;;;1.88;;
40537;SDS011;27925;41.874;12.526;2022-09-01T15:21:30;7.07;;;1.90;;
40537;SDS011;27925;41.874;12.526;2022-09-01T15:23:58;5.78;;;2.00;;
40537;SDS011;27925;41.874;12.526;2022-09-01T15:26:24;4.50;;;1.83;;
40537;SDS011;27925;41.874;12.526;2022-09-01T15:28:51;6.15;;;1.90;;
40537;SDS011;27925;41.874;12.526;2022-09-01T15:31:18;4.90;;;2.15;;
40537;SDS011;27925;41.874;12.526;2022-09-01T15:33:45;4.60;;;1.63;;
40537;SDS011;27925;41.874;12.526;2022-09-01T15:36:16;4.45;;;1.70;;
40537;SDS011;27925;41.874;12.526;2022-09-01T15:38:44;3.75;;;1.60;;
40537;SDS011;27925;41.874;12.526;2022-09-01T15:41:15;3.58;;;1.67;;
40537;SDS011;27925;41.874;12.526;2022-09-01T15:43:45;4.25;;;1.90;;
40537;SDS011;27925;41.874;12.526;2022-09-01T15:46:11;3.70;;;1.48;;
40537;SDS011;27925;41.874;12.526;2022-09-01T15:48:38;5.20;;;1.92;;
40537;SDS011;27925;41.874;12.526;2022-09-01T15:53:56;5.05;;;2.40;;
40537;SDS011;27925;41.874;12.526;2022-09-01T15:56:24;5.25;;;2.05;;
40537;SDS011;27925;41.874;12.526;2022-09-01T15:58:50;3.40;;;1.60;;
40537;SDS011;27925;41.874;12.526;2022-09-01T16:01:16;6.22;;;1.85;;
40537;SDS011;27925;41.874;12.526;2022-09-01T16:03:43;4.13;;;1.65;;
40537;SDS011;27925;41.874;12.526;2022-09-01T16:06:10;4.78;;;2.22;;
40537;SDS011;27925;41.874;12.526;2022-09-01T16:08:38;5.63;;;1.50;;
40537;SDS011;27925;41.874;12.526;2022-09-01T16:11:06;4.38;;;1.70;;
40537;SDS011;27925;41.874;12.526;2022-09-01T16:13:34;4.07;;;1.70;;
40537;SDS011;27925;41.874;12.526;2022-09-01T16:19:00;5.25;;;1.80;;